Latest Weather Observations for East Sale

IDV60801

Issued at 3:32 pm EST Saturday 2 July 2016 (issued every 30 minutes, with the page automatically refreshed every 10 minutes)

About weather observations | Map of weather stations | Latest weather observations for VIC | Other Formats
Station Details ID: 085072 Name: EAST SALE AIRPORT Lat: -38.12 Lon: 147.13 Height: 4.6 m
Data from the previous 72 hours. | See also: Recent months at East Sale
Date/Time
EST
Temp
°C
App
Temp
°C
Dew
Point
°C
Rel
Hum
%
Delta-T
°C
Wind Press
QNH
hPa
Press
MSL
hPa
Rain since
9am
mm
Dir  Spd
km/h
Gust
km/h
Spd
kts
Gust
kts
02/03:30pm 15.0 8.3 7.3 60 3.8 W 32 43 17 23 1022.4 1022.4 0.0
02/03:00pm 15.1 8.4 7.2 59 3.9 W 32 43 17 23 1022.4 1022.4 0.0
02/02:59pm 15.2 8.5 7.3 59 3.9 W 32 50 17 27 1022.4 1022.4 0.0
02/02:30pm 15.6 7.7 7.9 60 3.9 W 39 50 21 27 1022.1 1022.1 0.0
02/02:00pm 15.3 7.5 6.6 56 4.2 W 37 46 20 25 1021.9 1021.9 0.0
02/01:30pm 15.7 8.3 6.7 55 4.4 W 35 54 19 29 1022.1 1022.1 0.0
02/01:29pm 15.6 8.2 6.6 55 4.4 W 35 54 19 29 1022.1 1022.1 0.0
02/01:00pm 15.7 7.6 7.2 57 4.2 W 39 52 21 28 1022.1 1022.1 0.0
02/12:30pm 15.2 7.1 7.0 58 4.0 W 39 48 21 26 1022.7 1022.7 0.0
02/12:14pm 15.0 7.7 7.3 60 3.8 W 35 54 19 29 1022.9 1022.9 0.0
02/12:00pm 15.0 8.0 8.3 64 3.4 W 35 48 19 26 1023.4 1023.4 0.0
02/11:30am 14.9 8.1 7.9 63 3.5 W 33 46 18 25 1023.7 1023.7 0.0
02/11:00am 14.1 7.4 8.1 67 3.0 W 33 50 18 27 1023.8 1023.8 0.0
02/10:30am 13.9 7.9 8.5 70 2.7 W 30 39 16 21 1024.0 1024.0 0.0
02/10:00am 12.7 7.1 8.8 77 1.9 W 28 46 15 25 1024.0 1024.0 0.0
02/09:51am 13.1 7.5 8.8 75 2.2 W 28 46 15 25 1023.8 1023.8 0.0
02/09:30am 12.0 7.9 8.5 79 1.7 W 20 28 11 15 1023.8 1023.8 0.0
02/09:00am 11.6 7.9 8.1 79 1.7 W 17 20 9 11 1023.7 1023.7 0.0
02/08:30am 11.0 8.5 8.4 84 1.3 W 11 15 6 8 1023.5 1023.5 0.0
02/08:00am 9.8 7.6 7.9 88 0.9 SW 9 11 5 6 1023.2 1023.2 0.0
02/07:30am 9.5 5.6 7.3 86 1.0 WSW 17 20 9 11 1022.9 1022.9 0.0
02/07:00am 10.1 5.0 7.5 84 1.2 WNW 24 28 13 15 1022.5 1022.5 0.0
02/06:30am 10.7 7.0 7.8 82 1.4 WNW 17 20 9 11 1022.1 1022.1 0.0
02/06:00am 9.7 7.9 7.8 88 0.9 NNW 7 9 4 5 1022.4 1022.4 0.0
02/05:30am 9.8 7.2 7.9 88 0.9 WNW 11 13 6 7 1021.9 1021.9 0.0
02/05:00am 9.5 5.7 7.6 88 0.9 W 17 22 9 12 1021.9 1021.9 0.0
02/04:30am 9.2 5.7 7.3 88 0.9 W 15 17 8 9 1021.8 1021.8 0.0
02/04:00am 8.9 6.2 7.2 89 0.8 WSW 11 15 6 8 1021.9 1021.9 0.0
02/03:30am 8.9 7.8 7.0 88 0.9 WNW 2 7 1 4 1021.8 1021.8 0.0
02/03:00am 7.8 5.8 6.1 89 0.8 WNW 6 7 3 4 1021.9 1021.9 0.0
02/02:30am 8.4 5.2 6.7 89 0.8 W 13 17 7 9 1021.8 1021.8 0.0
02/02:00am 6.5 3.0 5.3 92 0.5 WNW 13 15 7 8 1021.6 1021.6 0.0
02/01:30am 6.5 3.3 5.0 90 0.7 NNW 11 11 6 6 1021.5 1021.5 0.0
02/01:00am 6.9 3.3 5.2 89 0.7 WNW 13 15 7 8 1021.6 1021.6 0.0
02/12:30am 7.3 3.8 5.6 89 0.8 WNW 13 15 7 8 1021.6 1021.6 0.0
02/12:00am 7.9 4.9 5.9 87 0.9 WSW 11 15 6 8 1021.9 1021.9 0.0
 
Date/Time
EST
Temp
°C
App
Temp
°C
Dew
Point
°C
Rel
Hum
%
Delta-T
°C
Wind Press
QNH
hPa
Press
MSL
hPa
Rain since
9am
mm
Dir  Spd
km/h
Gust
km/h
Spd
kts
Gust
kts
01/11:30pm 7.9 4.5 5.7 86 1.0 WNW 13 15 7 8 1021.9 1021.9 0.0
01/11:00pm 8.4 5.1 6.2 86 1.0 NW 13 17 7 9 1021.9 1021.9 0.0
01/10:30pm 8.7 4.3 6.7 87 0.9 NW 19 22 10 12 1021.7 1021.7 0.0
01/10:00pm 8.8 4.7 6.4 85 1.1 NW 17 20 9 11 1022.0 1022.0 0.0
01/09:30pm 9.2 6.0 6.8 85 1.1 W 13 17 7 9 1022.1 1022.1 0.0
01/09:00pm 9.5 4.6 6.8 83 1.3 W 22 26 12 14 1022.0 1022.0 0.0
01/08:30pm 9.3 4.6 6.0 80 1.5 W 20 24 11 13 1021.9 1021.9 0.0
01/08:00pm 10.0 5.5 6.0 76 1.8 W 19 24 10 13 1022.0 1022.0 0.0
01/07:30pm 9.5 4.6 5.3 75 1.9 W 20 24 11 13 1021.7 1021.7 0.0
01/07:00pm 10.6 6.5 6.0 73 2.1 W 17 20 9 11 1021.5 1021.5 0.0
01/06:30pm 10.8 6.1 6.2 73 2.1 WNW 20 24 11 13 1021.3 1021.3 0.0
01/06:00pm 10.3 6.2 6.3 76 1.9 W 17 20 9 11 1021.0 1021.0 0.0
01/05:30pm 11.0 5.3 6.7 75 2.0 W 26 37 14 20 1020.6 1020.6 0.0
01/05:00pm 11.3 6.4 6.8 74 2.1 WNW 22 30 12 16 1020.2 1020.2 0.0
01/04:30pm 11.6 6.8 7.3 75 2.1 WNW 22 30 12 16 1019.8 1019.8 0.0
01/04:00pm 11.8 7.5 6.9 72 2.3 W 19 24 10 13 1019.6 1019.6 0.0
01/03:30pm 12.0 7.3 7.9 76 2.0 W 22 30 12 16 1019.4 1019.4 0.0
01/03:00pm 12.0 6.5 7.7 75 2.1 W 26 37 14 20 1019.1 1019.1 0.0
01/02:30pm 12.5 6.7 7.8 73 2.3 W 28 37 15 20 1018.7 1018.7 0.0
01/02:00pm 13.4 9.2 9.6 78 1.9 W 22 33 12 18 1018.3 1018.3 0.0
01/01:30pm 11.7 5.6 8.4 80 1.6 W 30 44 16 24 1018.0 1018.0 0.0
01/01:00pm 12.9 7.3 8.8 76 2.1 W 28 43 15 23 1017.9 1017.9 0.0
01/12:30pm 12.4 6.5 9.1 80 1.7 W 30 39 16 21 1017.8 1017.8 0.0
01/12:00pm 12.2 6.2 8.5 78 1.8 W 30 43 16 23 1017.9 1017.9 0.0
01/11:30am 12.2 6.3 8.9 80 1.6 W 30 44 16 24 1017.8 1017.8 0.0
01/11:00am 11.3 4.8 8.3 82 1.5 W 32 43 17 23 1017.7 1017.7 0.0
01/10:30am 10.9 6.4 8.7 86 1.1 W 22 30 12 16 1017.9 1017.9 0.0
01/10:00am 9.4 4.7 7.8 90 0.8 W 22 28 12 15 1017.7 1017.7 0.0
01/09:30am 9.1 3.2 7.4 89 0.8 W 28 39 15 21 1017.2 1017.2 0.0
01/09:00am 8.8 3.2 7.3 90 0.7 W 26 37 14 20 1016.7 1016.7 3.2
01/08:30am 8.1 2.4 6.7 91 0.6 W 26 33 14 18 1016.2 1016.2 3.2
01/08:00am 7.0 2.2 5.8 92 0.5 W 20 28 11 15 1015.9 1015.9 3.2
01/07:30am 6.9 2.3 5.4 90 0.7 W 19 24 10 13 1015.5 1015.5 3.2
01/07:00am 7.1 2.4 5.1 87 0.9 W 19 24 10 13 1014.9 1014.9 3.2
01/06:30am 6.6 1.6 4.8 88 0.8 W 20 24 11 13 1014.3 1014.3 3.2
01/06:00am 5.9 1.4 4.1 88 0.8 W 17 20 9 11 1013.8 1013.8 3.2
01/05:30am 6.5 1.7 4.5 87 0.9 W 19 26 10 14 1013.2 1013.2 3.2
01/05:00am 6.8 1.8 4.6 86 1.0 W 20 26 11 14 1012.9 1012.9 3.2
01/04:30am 6.9 1.9 4.6 85 1.0 W 20 28 11 15 1012.5 1012.5 3.2
01/04:00am 6.9 2.1 4.6 85 1.0 W 19 24 10 13 1012.0 1012.0 3.2
01/03:30am 5.1 0.5 3.8 91 0.5 WNW 17 19 9 10 1011.6 1011.6 3.2
01/03:00am 4.6 -0.1 3.4 92 0.5 W 17 20 9 11 1011.3 1011.3 3.2
01/02:30am 4.2 -0.1 3.0 92 0.5 WSW 15 17 8 9 1010.9 1010.9 3.2
01/02:00am 4.2 1.0 2.9 91 0.5 W 9 13 5 7 1010.6 1010.6 3.2
01/01:30am 4.7 1.5 3.0 89 0.7 WNW 9 11 5 6 1010.5 1010.5 3.2
01/01:00am 5.2 2.8 4.2 93 0.4 W 6 7 3 4 1010.3 1010.3 3.2
01/12:30am 5.5 3.1 4.5 93 0.4 WSW 6 7 3 4 1010.1 1010.1 3.2
01/12:00am 6.0 2.7 4.3 89 0.7 WNW 11 15 6 8 1009.3 1009.3 3.2
 
Date/Time
EST
Temp
°C
App
Temp
°C
Dew
Point
°C
Rel
Hum
%
Delta-T
°C
Wind Press
QNH
hPa
Press
MSL
hPa
Rain since
9am
mm
Dir  Spd
km/h
Gust
km/h
Spd
kts
Gust
kts
30/11:30pm 6.9 4.0 4.9 87 0.9 WNW 9 13 5 7 1009.2 1009.2 3.2
30/11:00pm 6.8 4.1 5.6 92 0.5 NNW 9 11 5 6 1009.3 1009.3 3.2
30/10:30pm 6.9 4.2 5.8 93 0.5 NW 9 11 5 6 1009.2 1009.2 3.2
30/10:00pm 7.0 4.7 5.8 92 0.5 NNW 7 9 4 5 1008.9 1008.9 3.2
30/09:30pm 7.1 4.5 5.9 92 0.5 NW 9 11 5 6 1009.1 1009.1 3.2
30/09:00pm 7.7 5.1 6.2 90 0.7 NNW 9 11 5 6 1008.9 1008.9 3.2
30/08:30pm 8.4 3.0 6.5 88 0.9 WNW 24 30 13 16 1009.1 1009.1 3.2
30/08:00pm 9.2 6.2 5.9 80 1.5 WNW 11 20 6 11 1008.9 1008.9 2.0
30/07:30pm 8.8 7.5 5.9 82 1.3 NNE 2 6 1 3 1008.0 1008.0 0.8
30/07:00pm 8.7 6.5 6.2 84 1.1 E 7 11 4 6 1007.9 1007.9 0.8
30/06:30pm 9.1 7.5 6.2 82 1.3 SE 4 11 2 6 1007.5 1007.5 0.8
30/06:00pm 9.2 7.0 5.4 77 1.7 W 6 9 3 5 1007.1 1007.1 0.4
30/05:30pm 9.5 7.1 4.5 71 2.2 NNE 6 7 3 4 1006.6 1006.6 0.0
30/05:00pm 10.9 8.4 3.7 61 3.2 WNW 6 9 3 5 1006.3 1006.3 0.0
30/04:30pm 11.3 7.1 3.8 60 3.3 WNW 15 17 8 9 1006.4 1006.4 0.0
30/04:00pm 11.8 7.7 4.1 59 3.5 WNW 15 19 8 10 1006.4 1006.4 0.0
30/03:30pm 12.8 7.8 3.7 54 4.1 WNW 19 24 10 13 1006.4 1006.4 0.0
30/03:10pm 14.3 11.6 5.4 55 4.2 SW 9 19 5 10 1006.5 - 0.0
30/03:00pm 14.1 11.5 4.1 51 4.6 SW 7 11 4 6 1006.3 1006.3 0.0
30/02:40pm 14.1 10.5 4.9 54 4.3 SW 13 17 7 9 1006.7 - 0.0
30/02:30pm 13.2 10.6 6.3 63 3.3 SW 9 13 5 7 1006.7 1006.7 0.0
30/02:10pm 14.4 12.9 6.7 60 3.7 NW 4 9 2 5 1006.9 - 0.0
30/02:00pm 13.4 11.6 7.0 65 3.1 W 6 9 3 5 1007.1 1007.1 0.0
30/01:40pm 13.0 11.5 6.8 66 3.0 NNE 4 7 2 4 1007.6 - 0.0
30/01:30pm 13.2 11.2 6.1 62 3.4 NE 6 7 3 4 1007.6 1007.6 0.0
30/01:00pm 12.1 10.5 6.4 68 2.7 NNE 4 9 2 5 1008.4 1008.4 0.0
30/12:30pm 11.6 9.5 6.7 72 2.3 ENE 7 9 4 5 1009.1 1009.1 0.0
30/12:00pm 10.8 9.5 5.8 71 2.3 NNW 2 6 1 3 1010.0 1010.0 0.0
30/11:30am 9.8 7.4 7.1 83 1.3 E 9 15 5 8 1010.6 1010.6 0.0
30/11:00am 9.0 6.9 6.6 85 1.1 SE 7 9 4 5 1011.4 1011.4 0.0
30/10:30am 8.7 6.1 6.2 84 1.1 E 9 13 5 7 1012.0 1012.0 0.0
30/10:00am 8.0 5.9 5.8 86 1.0 SSE 6 7 3 4 1012.3 1012.3 0.0
30/09:30am 7.4 4.8 6.2 92 0.5 S 9 9 5 5 1012.5 1012.5 0.0
30/09:00am 5.8 2.6 5.2 96 0.3 SSW 11 15 6 8 1012.9 1012.9 0.0
30/08:30am 3.4 0.2 2.8 96 0.2 ESE 9 13 5 7 1012.9 1012.9 0.0
30/08:00am 3.0 0.1 2.4 96 0.2 ENE 7 9 4 5 1013.3 1013.3 0.0
30/07:30am 2.4 -1.0 1.8 96 0.2 ENE 9 9 5 5 1013.7 1013.7 0.0
30/07:00am 3.0 0.1 2.4 96 0.2 ESE 7 7 4 4 1014.0 1014.0 0.0
30/06:30am 2.4 -0.4 1.8 96 0.2 SSE 6 9 3 5 1014.3 1014.3 0.0
30/06:00am 2.3 0.6 1.7 96 0.2 CALM 0 0 0 0 1014.8 1014.8 0.0
30/05:30am 3.0 -0.7 2.6 97 0.2 SSW 11 15 6 8 1015.1 1015.1 0.0
30/05:00am 2.6 -0.7 2.2 97 0.2 NNW 9 13 5 7 1015.5 1015.5 0.0
30/04:30am 2.4 -0.6 2.0 97 0.2 NNW 7 11 4 6 1015.7 1015.7 0.0
30/04:00am 2.5 0.1 2.1 97 0.2 NW 4 6 2 3 1016.1 1016.1 0.0
30/03:30am 2.8 0.1 2.5 98 0.1 WNW 6 9 3 5 1016.6 1016.6 0.0
30/03:00am 1.7 -1.4 1.3 97 0.2 NNW 7 11 4 6 1016.9 1016.9 0.0
30/02:30am 1.4 -1.6 1.0 97 0.1 NW 6 7 3 4 1017.2 1017.2 0.0
30/02:00am 1.9 -1.2 1.5 97 0.2 NW 7 9 4 5 1017.6 1017.6 0.0
30/01:30am 2.2 -0.6 1.8 97 0.2 NNW 6 7 3 4 1017.8 1017.8 0.0
30/01:00am 3.1 0.8 2.5 96 0.2 SE 4 6 2 3 1018.0 1018.0 0.0
30/12:30am 3.5 0.3 2.9 96 0.2 SE 9 11 5 6 1018.4 1018.4 0.0
30/12:00am 3.1 0.2 2.4 95 0.3 S 7 11 4 6 1018.6 1018.6 0.0
 
Date/Time
EST
Temp
°C
App
Temp
°C
Dew
Point
°C
Rel
Hum
%
Delta-T
°C
Wind Press
QNH
hPa
Press
MSL
hPa
Rain since
9am
mm
Dir  Spd
km/h
Gust
km/h
Spd
kts
Gust
kts
29/11:30pm 4.7 2.3 4.1 96 0.3 SSW 6 9 3 5 1019.1 1019.1 0.0
29/11:00pm 5.3 3.0 4.6 95 0.3 ESE 6 7 3 4 1019.3 1019.3 0.0
29/10:30pm 5.0 2.6 4.3 95 0.3 ESE 6 9 3 5 1019.7 1019.7 0.0
29/10:00pm 5.4 3.0 4.5 94 0.4 ESE 6 7 3 4 1020.1 1020.1 0.0
29/09:30pm 4.9 2.4 3.6 91 0.5 N 6 7 3 4 1020.6 1020.6 0.0
29/09:00pm 5.5 3.0 3.8 89 0.7 W 6 7 3 4 1020.9 1020.9 0.0
29/08:30pm 5.6 4.2 3.6 87 0.8 CALM 0 0 0 0 1021.4 1021.4 0.0
29/08:00pm 6.2 3.5 3.7 84 1.1 N 7 7 4 4 1021.7 1021.7 0.0
29/07:30pm 7.2 4.3 4.5 83 1.2 NE 9 11 5 6 1021.9 1021.9 0.0
29/07:00pm 7.7 5.3 4.3 79 1.5 NNE 6 7 3 4 1022.2 1022.2 0.0
29/06:30pm 8.9 6.1 5.1 77 1.7 N 9 11 5 6 1022.2 1022.2 0.0
29/06:00pm 10.4 7.6 5.0 69 2.4 NW 9 11 5 6 1022.4 1022.4 0.0
29/05:30pm 10.9 8.2 5.4 69 2.5 NNW 9 11 5 6 1022.7 1022.7 0.0
29/05:00pm 11.5 8.3 5.2 65 2.9 NW 11 11 6 6 1022.9 1022.9 0.0
29/04:30pm 12.7 8.5 5.8 63 3.2 WNW 17 19 9 10 1023.0 1023.0 0.0
29/04:00pm 13.9 9.8 6.3 60 3.6 NW 17 20 9 11 1023.1 1023.1 0.0

Other Formats:

Comma delimited format used in spreadsheet applications
http://www.bom.gov.au/fwo/IDV60801/IDV60801.94907.axf

JavaScript Object Notation format (JSON) in row-major order
http://www.bom.gov.au/fwo/IDV60801/IDV60801.94907.json